Time;durP1;ratioP1;P1;durP2;ratioP2;P2;SDS_P1;SDS_P2;PMS_P1;PMS_P2;Temp;Humidity;BMP_temperature;BMP_pressure;BME280_temperature;BME280_humidity;BME280_pressure;Samples;Min_cycle;Max_cycle;Signal;HPM_P1;HPM_P2
2023/10/29 00:00:12;;;;;;;3.23;2.80;;;;;;;-0.28;100.00;100336.53;4955104;28;20038;-66
2023/10/29 00:02:38;;;;;;;4.33;2.87;;;;;;;-0.17;100.00;100355.78;4953772;29;20398;-65
2023/10/29 00:05:12;;;;;;;4.73;2.87;;;;;;;-0.28;100.00;100333.91;4954061;29;20369;-64
2023/10/29 00:07:39;;;;;;;3.30;2.83;;;;;;;-0.25;100.00;100346.78;4953698;29;20094;-66
2023/10/29 00:10:06;;;;;;;6.30;3.40;;;;;;;-0.20;100.00;100370.84;4953364;29;20275;-66
2023/10/29 00:12:32;;;;;;;3.70;3.07;;;;;;;-0.32;100.00;100347.16;4953542;29;20282;-63
2023/10/29 00:14:58;;;;;;;4.07;2.80;;;;;;;-0.34;100.00;100356.91;4954437;29;20329;-65
2023/10/29 00:17:23;;;;;;;4.40;3.20;;;;;;;-0.27;100.00;100377.44;4936745;29;20282;-63
2023/10/29 00:19:50;;;;;;;6.93;3.00;;;;;;;-0.23;100.00;100368.44;4953286;29;20081;-64
2023/10/29 00:22:16;;;;;;;4.57;3.17;;;;;;;-0.23;100.00;100361.44;4953897;29;20155;-62
2023/10/29 00:24:42;;;;;;;8.50;3.73;;;;;;;-0.38;100.00;100342.34;4936278;29;20298;-62
2023/10/29 00:27:07;;;;;;;2.40;2.20;;;;;;;-0.23;100.00;100373.69;4953164;29;20255;-64
2023/10/29 00:29:33;;;;;;;5.33;3.23;;;;;;;-0.32;100.00;100354.19;4953537;29;20435;-63
2023/10/29 00:31:58;;;;;;;3.93;3.10;;;;;;;-0.32;100.00;100352.41;4953278;29;20047;-63
2023/10/29 00:34:24;;;;;;;5.07;3.43;;;;;;;-0.58;100.00;100308.00;4953287;29;20051;-63
2023/10/29 00:36:49;;;;;;;3.30;3.00;;;;;;;-0.26;100.00;100360.81;4953038;29;20035;-64
2023/10/29 00:39:15;;;;;;;3.77;2.90;;;;;;;-0.29;100.00;100358.38;4952859;29;20136;-64
2023/10/29 00:41:42;;;;;;;5.07;2.90;;;;;;;-0.41;100.00;100350.41;4936190;29;20179;-65
2023/10/29 00:44:07;;;;;;;3.33;2.87;;;;;;;-0.47;100.00;100342.97;4953967;29;20066;-63
2023/10/29 00:46:33;;;;;;;4.57;3.10;;;;;;;-0.36;100.00;100355.31;4953798;29;20753;-63
2023/10/29 00:48:59;;;;;;;6.00;3.40;;;;;;;-0.20;100.00;100370.84;4953689;29;20040;-63
2023/10/29 00:51:25;;;;;;;3.57;2.80;;;;;;;-0.23;100.00;100365.81;4953366;29;20154;-64
2023/10/29 00:53:51;;;;;;;3.77;2.73;;;;;;;-0.23;100.00;100378.91;4953223;29;20039;-63
2023/10/29 00:56:18;;;;;;;5.53;3.37;;;;;;;-0.28;100.00;100383.63;4954009;29;20362;-62
2023/10/29 00:58:46;;;;;;;4.40;3.30;;;;;;;-0.34;100.00;100384.84;4953897;29;20447;-65
2023/10/29 01:01:11;;;;;;;5.47;3.27;;;;;;;-0.38;100.00;100373.75;4953781;29;20322;-62
2023/10/29 01:03:37;;;;;;;3.90;2.87;;;;;;;-0.25;100.00;100383.41;4953305;29;20269;-63
2023/10/29 01:06:03;;;;;;;4.80;3.70;;;;;;;-0.24;100.00;100385.94;4953381;29;20037;-63
2023/10/29 01:08:29;;;;;;;6.83;3.37;;;;;;;-0.38;100.00;100362.44;4953428;29;20138;-64
2023/10/29 01:10:55;;;;;;;3.80;3.03;;;;;;;-0.45;100.00;100355.94;4953624;28;20359;-64
2023/10/29 01:13:20;;;;;;;5.23;3.33;;;;;;;-0.57;100.00;100326.22;4956599;29;20054;-63
2023/10/29 01:15:46;;;;;;;3.03;2.73;;;;;;;-0.20;100.00;100389.16;4939292;29;20093;-65
2023/10/29 01:18:11;;;;;;;4.83;3.67;;;;;;;-0.46;100.00;100344.66;4956632;29;20079;-63
2023/10/29 01:20:38;;;;;;;3.47;2.80;;;;;;;-0.32;100.00;100368.09;4956521;29;20485;-63
2023/10/29 01:23:04;;;;;;;4.53;3.57;;;;;;;-0.27;100.00;100380.91;4957614;29;20094;-68
2023/10/29 01:25:30;;;;;;;4.03;3.20;;;;;;;-0.35;100.00;100372.69;4957426;29;20259;-63
2023/10/29 01:27:56;;;;;;;3.30;3.00;;;;;;;-0.23;100.00;100387.59;4959719;29;20093;-63
2023/10/29 01:30:21;;;;;;;3.47;3.13;;;;;;;-0.28;100.00;100388.84;4960890;29;20115;-66
2023/10/29 01:32:47;;;;;;;3.93;3.07;;;;;;;-1.01;100.00;100269.88;4962551;29;20043;-65
2023/10/29 01:35:13;;;;;;;3.10;2.80;;;;;;;-0.28;100.00;100394.09;4963401;29;20043;-63
2023/10/29 01:37:38;;;;;;;2.83;2.60;;;;;;;-0.31;100.00;100401.19;4964952;29;20046;-63
2023/10/29 01:40:05;;;;;;;3.43;2.80;;;;;;;-0.43;100.00;100369.78;4962161;29;20114;-63
2023/10/29 01:42:31;;;;;;;3.80;2.87;;;;;;;-0.34;100.00;100390.91;4957428;29;20031;-63
2023/10/29 01:44:56;;;;;;;3.83;3.33;;;;;;;-0.37;100.00;100385.88;4964662;29;20334;-62
2023/10/29 01:47:22;;;;;;;4.57;3.10;;;;;;;-0.37;100.00;100385.88;4960686;29;20042;-63
2023/10/29 01:49:48;;;;;;;4.70;3.10;;;;;;;-0.33;100.00;100394.38;4955953;29;20122;-63
2023/10/29 01:52:13;;;;;;;8.80;3.67;;;;;;;-0.45;100.00;100387.34;4955783;29;20731;-63
2023/10/29 01:54:39;;;;;;;3.67;3.20;;;;;;;-0.44;100.00;100400.31;4955918;29;20039;-63
2023/10/29 01:57:05;;;;;;;6.43;3.10;;;;;;;-0.53;100.00;100385.25;4955728;29;20497;-64
2023/10/29 01:59:31;;;;;;;3.30;3.00;;;;;;;-0.35;100.00;100417.19;4955826;29;20051;-64
2023/10/29 02:01:56;;;;;;;5.20;3.47;;;;;;;-0.42;100.00;100408.06;4938693;29;20047;-63
2023/10/29 02:04:26;;;;;;;3.70;3.40;;;;;;;-0.35;100.00;100423.25;4955461;29;20039;-63
2023/10/29 02:06:53;;;;;;;3.97;3.37;;;;;;;-0.38;100.00;100420.00;4955477;29;20042;-62
2023/10/29 02:09:19;;;;;;;3.40;2.80;;;;;;;-0.63;100.00;100384.16;4955671;29;20267;-65
2023/10/29 02:11:44;;;;;;;4.10;2.90;;;;;;;-0.40;100.00;100424.50;4955308;29;20589;-64
2023/10/29 02:14:10;;;;;;;3.33;3.00;;;;;;;-0.51;100.00;100403.44;4955580;29;20070;-66
2023/10/29 02:16:35;;;;;;;3.47;2.50;;;;;;;-0.36;100.00;100437.28;4955408;29;20523;-64
2023/10/29 02:19:01;;;;;;;3.53;2.63;;;;;;;-0.37;100.00;100432.97;4955178;29;20051;-64
2023/10/29 02:21:26;;;;;;;3.70;2.93;;;;;;;-0.32;100.00;100438.75;4954973;29;20054;-64
2023/10/29 02:23:53;;;;;;;6.73;2.83;;;;;;;-0.34;100.00;100432.78;4955186;28;20043;-64
2023/10/29 02:26:19;;;;;;;5.27;3.60;;;;;;;-0.27;100.00;100440.25;4955356;29;20058;-65
2023/10/29 02:28:45;;;;;;;3.43;2.17;;;;;;;-0.44;100.00;100417.81;4955107;29;20747;-64
2023/10/29 02:31:21;;;;;;;3.87;2.90;;;;;;;-0.27;100.00;100437.63;4954723;28;20275;-64
2023/10/29 02:33:47;;;;;;;2.90;2.60;;;;;;;-0.45;100.00;100414.34;4954970;29;20051;-65
2023/10/29 02:36:14;;;;;;;3.80;2.80;;;;;;;-0.47;100.00;100424.06;4955204;29;20371;-63
2023/10/29 02:38:43;;;;;;;5.73;2.90;;;;;;;-0.39;100.00;100429.63;4954983;29;20860;-63
2023/10/29 02:41:09;;;;;;;3.03;2.40;;;;;;;-0.48;100.00;100419.78;4954910;29;20338;-65
2023/10/29 02:43:38;;;;;;;3.40;2.90;;;;;;;-0.44;100.00;100421.25;4955042;29;20864;-64
2023/10/29 02:46:03;;;;;;;3.23;2.53;;;;;;;-0.33;100.00;100449.31;4954747;29;20134;-64
2023/10/29 02:48:29;;;;;;;2.97;2.50;;;;;;;-0.28;100.00;100464.75;4954700;29;20373;-64
2023/10/29 02:50:55;;;;;;;3.10;2.47;;;;;;;-0.31;100.00;100463.13;4954826;29;20067;-63
2023/10/29 02:53:21;;;;;;;2.40;2.20;;;;;;;-0.36;99.78;100473.91;4954813;29;20411;-62
2023/10/29 02:55:46;;;;;;;3.30;2.57;;;;;;;-0.34;99.36;100472.03;4937582;29;20418;-64
2023/10/29 02:58:12;;;;;;;4.17;2.67;;;;;;;-0.43;99.34;100467.41;4954581;29;20039;-64
2023/10/29 03:00:38;;;;;;;2.60;2.40;;;;;;;-0.52;99.69;100444.47;4954763;29;20039;-64
2023/10/29 03:03:05;;;;;;;4.43;2.87;;;;;;;-0.28;99.81;100472.59;4937072;29;20298;-64
2023/10/29 03:05:31;;;;;;;3.27;2.60;;;;;;;-0.29;99.53;100466.50;4937480;29;20762;-63
2023/10/29 03:07:59;;;;;;;3.80;2.87;;;;;;;-0.18;98.80;100487.56;4954361;29;20767;-63
2023/10/29 03:10:25;;;;;;;5.63;2.83;;;;;;;-0.33;99.06;100457.16;4958430;29;20271;-63
2023/10/29 03:12:50;;;;;;;4.60;2.90;;;;;;;-0.14;99.04;100488.22;4957689;29;20279;-63
2023/10/29 03:15:16;;;;;;;3.13;2.70;;;;;;;-0.26;98.42;100473.31;4957485;29;20081;-63
2023/10/29 03:17:42;;;;;;;3.03;2.70;;;;;;;-0.25;98.14;100473.22;4955936;29;20387;-63
2023/10/29 03:20:08;;;;;;;3.57;3.20;;;;;;;-0.15;98.65;100489.16;4937323;29;20043;-63
2023/10/29 03:22:33;;;;;;;4.00;2.80;;;;;;;-0.26;97.34;100465.47;4954793;29;20043;-63
2023/10/29 03:24:59;;;;;;;3.03;2.70;;;;;;;-0.22;98.03;100483.50;4954578;29;20255;-63
2023/10/29 03:27:25;;;;;;;3.70;2.90;;;;;;;-0.33;98.17;100460.63;4954618;29;20455;-63
2023/10/29 03:29:51;;;;;;;3.77;2.90;;;;;;;-0.24;98.80;100480.13;4954230;29;20504;-64
2023/10/29 03:32:16;;;;;;;3.37;3.07;;;;;;;-0.25;97.81;100482.84;4954908;29;20287;-67
2023/10/29 03:34:42;;;;;;;4.30;3.30;;;;;;;-0.27;98.39;100487.34;4953834;28;20031;-64
2023/10/29 03:37:07;;;;;;;4.77;3.33;;;;;;;-0.19;98.41;100504.22;4953760;29;20031;-62
2023/10/29 03:39:33;;;;;;;4.10;3.47;;;;;;;-0.14;98.13;100511.78;4953763;29;20139;-64
2023/10/29 03:41:59;;;;;;;3.57;3.00;;;;;;;-0.14;98.59;100509.16;4954508;29;20067;-65
2023/10/29 03:44:24;;;;;;;4.63;4.13;;;;;;;-0.43;97.51;100464.78;4954387;29;20147;-65
2023/10/29 03:46:51;;;;;;;3.97;3.20;;;;;;;-0.21;98.21;100498.25;4954178;29;20031;-63
2023/10/29 03:49:20;;;;;;;4.20;2.90;;;;;;;-0.14;98.42;100507.38;4937052;29;20045;-63
2023/10/29 03:51:46;;;;;;;;;;;;;;;-0.07;98.49;100513.03;4954611;29;20279;-63
2023/10/29 03:54:12;;;;;;;4.90;3.17;;;;;;;-0.22;98.04;100493.13;4953831;29;19918;-63
2023/10/29 03:56:37;;;;;;;4.30;3.53;;;;;;;-0.17;98.27;100504.13;4954597;29;20263;-63
2023/10/29 03:59:03;;;;;;;3.97;3.20;;;;;;;-0.16;98.83;100505.78;4954248;29;20079;-62
2023/10/29 04:01:29;;;;;;;5.13;3.20;;;;;;;-0.23;99.24;100501.91;4954305;29;20066;-64
2023/10/29 04:03:55;;;;;;;4.37;2.63;;;;;;;-0.19;98.80;100519.09;4955346;29;20039;-64
2023/10/29 04:06:20;;;;;;;3.47;2.83;;;;;;;-0.35;99.67;100479.97;4953628;29;20122;-63
2023/10/29 04:08:47;;;;;;;4.17;3.33;;;;;;;-0.12;100.00;100520.34;4936929;29;20031;-66
2023/10/29 04:11:13;;;;;;;3.67;3.23;;;;;;;-0.11;99.81;100517.63;4954503;29;20039;-62
2023/10/29 04:13:39;;;;;;;3.73;3.00;;;;;;;-0.12;99.44;100520.34;4955014;29;20282;-63
2023/10/29 04:16:05;;;;;;;4.27;3.60;;;;;;;-0.21;99.37;100510.50;4953989;29;20275;-64
2023/10/29 04:18:31;;;;;;;3.77;3.33;;;;;;;-0.13;99.56;100524.75;4953713;29;20287;-63
2023/10/29 04:21:08;;;;;;;3.37;2.90;;;;;;;-0.15;99.68;100517.94;4953423;29;20090;-63
2023/10/29 04:23:36;;;;;;;3.57;3.27;;;;;;;-0.18;99.70;100516.38;4953122;29;20054;-63
2023/10/29 04:26:02;;;;;;;4.30;3.30;;;;;;;-0.14;99.45;100527.47;4936334;29;20271;-64
2023/10/29 04:28:28;;;;;;;4.67;3.47;;;;;;;-0.32;100.00;100491.09;4953097;29;20634;-64
2023/10/29 04:30:55;;;;;;;3.07;2.77;;;;;;;-0.21;99.36;100516.56;4953238;28;20059;-63
2023/10/29 04:33:21;;;;;;;3.70;3.33;;;;;;;-0.21;100.00;100518.34;4953410;29;20039;-62
2023/10/29 04:35:47;;;;;;;3.80;3.00;;;;;;;-0.20;99.95;100528.72;4953211;29;20262;-63
2023/10/29 04:38:12;;;;;;;3.17;2.87;;;;;;;-0.15;100.00;100528.41;4953105;29;20305;-63
2023/10/29 04:40:38;;;;;;;5.40;3.63;;;;;;;-0.03;100.00;100545.94;4953150;29;20042;-63
2023/10/29 04:43:04;;;;;;;3.00;2.70;;;;;;;-0.01;100.00;100555.34;4952910;29;20086;-64
2023/10/29 04:45:29;;;;;;;3.93;3.03;;;;;;;-0.01;99.50;100551.91;4953772;28;20039;-64
2023/10/29 04:47:55;;;;;;;4.00;2.87;;;;;;;-0.02;99.28;100558.06;4960197;29;20039;-63
2023/10/29 04:50:21;;;;;;;5.30;2.90;;;;;;;-0.13;98.82;100552.72;4961118;29;20061;-65
2023/10/29 04:52:46;;;;;;;5.13;3.40;;;;;;;-0.26;99.11;100538.75;4958519;29;20122;-63
2023/10/29 04:55:12;;;;;;;3.93;3.03;;;;;;;-0.25;98.76;100527.34;4956931;29;20266;-63
2023/10/29 04:57:37;;;;;;;3.43;2.60;;;;;;;-0.19;97.80;100553.13;4956786;29;20035;-66
2023/10/29 05:00:05;;;;;;;3.57;3.23;;;;;;;-0.17;97.48;100564.31;4939520;29;20082;-65
2023/10/29 05:02:32;;;;;;;4.23;3.27;;;;;;;-0.24;97.13;100555.19;4957207;29;20047;-63
2023/10/29 05:04:57;;;;;;;5.47;3.00;;;;;;;-0.25;96.86;100563.97;4956700;29;20126;-65
2023/10/29 05:07:23;;;;;;;4.00;2.87;;;;;;;-0.24;96.22;100573.50;4956773;29;20070;-65
2023/10/29 05:09:49;;;;;;;6.47;3.57;;;;;;;-0.32;95.99;100572.19;4956516;29;20146;-64
2023/10/29 05:12:15;;;;;;;5.43;3.47;;;;;;;-0.38;96.60;100567.38;4956634;29;20043;-63
2023/10/29 05:14:40;;;;;;;4.90;2.77;;;;;;;-0.27;98.04;100579.78;4939618;29;20361;-63
2023/10/29 05:17:06;;;;;;;3.13;2.60;;;;;;;-0.22;96.68;100577.72;4956531;29;20046;-63
2023/10/29 05:19:32;;;;;;;4.10;3.60;;;;;;;-0.26;95.87;100575.38;4956573;29;20061;-64
2023/10/29 05:21:57;;;;;;;5.43;2.77;;;;;;;-0.19;95.83;100581.91;4939417;29;20581;-65
2023/10/29 05:24:23;;;;;;;3.27;2.93;;;;;;;-0.19;94.19;100587.13;4956430;29;20035;-64
2023/10/29 05:26:49;;;;;;;3.67;2.77;;;;;;;-0.23;92.70;100586.50;4956237;29;20072;-64
2023/10/29 05:29:14;;;;;;;3.47;2.70;;;;;;;-0.18;91.43;100599.28;4956354;29;20027;-65
2023/10/29 05:31:41;;;;;;;2.93;2.40;;;;;;;-0.25;89.87;100603.25;4956360;28;20058;-63
2023/10/29 05:34:07;;;;;;;3.20;2.90;;;;;;;-0.25;90.27;100600.63;4956381;29;20039;-64
2023/10/29 05:36:32;;;;;;;3.93;2.27;;;;;;;-0.28;90.73;100599.03;4956103;29;20337;-63
2023/10/29 05:38:58;;;;;;;4.57;2.40;;;;;;;-0.22;90.57;100603.03;4955971;29;20774;-63
2023/10/29 05:41:24;;;;;;;3.47;2.80;;;;;;;-0.38;91.14;100577.81;4955902;29;20044;-64
2023/10/29 05:43:49;;;;;;;2.70;2.40;;;;;;;-0.24;90.10;100604.91;4956155;29;20039;-66
2023/10/29 05:46:15;;;;;;;3.90;2.40;;;;;;;-0.27;89.53;100600.72;4956187;29;20498;-65
2023/10/29 05:48:41;;;;;;;3.13;2.10;;;;;;;-0.21;88.93;100612.56;4956079;29;20039;-65
2023/10/29 05:51:10;;;;;;;3.63;2.70;;;;;;;-0.33;88.35;100598.47;4955915;29;20259;-64
2023/10/29 05:53:38;;;;;;;6.70;2.80;;;;;;;-0.36;88.31;100591.66;4955722;29;20043;-63
2023/10/29 05:56:04;;;;;;;3.37;3.07;;;;;;;-0.23;88.68;100601.34;4955845;29;20266;-65
2023/10/29 05:58:30;;;;;;;5.67;2.57;;;;;;;-0.17;86.79;100616.66;4955530;28;20663;-63
2023/10/29 06:00:56;;;;;;;3.40;2.77;;;;;;;-0.15;86.39;100635.72;4955889;29;20266;-63
2023/10/29 06:03:21;;;;;;;3.47;2.40;;;;;;;-0.28;85.73;100606.88;4956301;29;20520;-65
2023/10/29 06:05:47;;;;;;;2.97;2.30;;;;;;;-0.22;85.70;100614.34;4955843;29;20043;-63
2023/10/29 06:08:12;;;;;;;3.20;2.70;;;;;;;-0.20;85.68;100625.56;4955993;29;20047;-64
2023/10/29 06:10:38;;;;;;;4.60;2.77;;;;;;;-0.08;84.99;100637.00;4938364;29;20174;-62
2023/10/29 06:13:04;;;;;;;3.70;2.93;;;;;;;-0.02;84.89;100634.84;4955681;29;20130;-64
2023/10/29 06:15:29;;;;;;;3.20;2.53;;;;;;;-0.02;85.20;100626.13;4955608;29;20435;-64
2023/10/29 06:17:55;;;;;;;4.67;3.00;;;;;;;-0.04;83.98;100625.41;4955354;29;20275;-64
2023/10/29 06:20:22;;;;;;;3.90;3.47;;;;;;;0.02;83.29;100642.53;4938026;29;20039;-65
2023/10/29 06:22:48;;;;;;;3.07;2.47;;;;;;;-0.10;82.96;100629.25;4955218;29;20106;-65
2023/10/29 06:25:15;;;;;;;3.90;2.67;;;;;;;-0.23;83.00;100601.34;4955195;29;20754;-64
2023/10/29 06:27:40;;;;;;;5.03;2.60;;;;;;;-0.07;81.75;100638.69;4955254;29;20279;-64
2023/10/29 06:30:09;;;;;;;2.60;2.40;;;;;;;0.06;82.47;100660.56;4954988;28;20302;-64
2023/10/29 06:32:36;;;;;;;2.70;2.30;;;;;;;-0.05;81.48;100647.28;4955061;29;20406;-64
2023/10/29 06:35:02;;;;;;;3.33;2.70;;;;;;;0.01;80.42;100652.16;4955098;29;20078;-65
2023/10/29 06:37:29;;;;;;;3.63;2.47;;;;;;;-0.15;80.52;100630.50;4954803;29;20766;-63
2023/10/29 06:39:56;;;;;;;3.10;2.80;;;;;;;0.02;79.73;100653.84;4954716;29;20334;-64
2023/10/29 06:42:21;;;;;;;3.90;2.43;;;;;;;-0.05;79.27;100647.28;4937977;29;20038;-62
2023/10/29 06:44:47;;;;;;;4.30;2.67;;;;;;;-0.02;79.31;100653.16;4955130;29;20271;-63
2023/10/29 06:47:16;;;;;;;4.60;2.43;;;;;;;-0.07;79.63;100643.94;4954831;29;20035;-65
2023/10/29 06:49:42;;;;;;;5.47;2.77;;;;;;;0.06;80.03;100657.94;4937745;29;20389;-65
2023/10/29 06:52:10;;;;;;;3.93;2.87;;;;;;;0.06;79.61;100659.72;4954938;29;20279;-64
2023/10/29 06:54:36;;;;;;;2.95;2.40;;;;;;;0.15;78.85;100665.19;4954884;29;20090;-67
2023/10/29 06:57:04;;;;;;;3.40;2.70;;;;;;;0.10;78.77;100648.94;4954798;29;20482;-64
2023/10/29 06:59:30;;;;;;;4.20;2.22;;;;;;;0.15;79.68;100657.34;4937719;29;20039;-64
2023/10/29 07:01:59;;;;;;;5.10;2.33;;;;;;;0.22;78.28;100660.38;4954960;29;20114;-66
2023/10/29 07:04:31;;;;;;;2.95;2.58;;;;;;;-0.82;77.08;100493.50;4938197;29;20038;-64
2023/10/29 07:06:57;;;;;;;4.30;3.30;;;;;;;-0.03;78.06;100641.00;4954239;29;20039;-64
2023/10/29 07:09:22;;;;;;;3.07;2.13;;;;;;;0.17;77.87;100681.66;4953754;28;20819;-63
2023/10/29 07:11:48;;;;;;;4.30;2.50;;;;;;;0.21;78.24;100687.53;4954512;29;20035;-66
2023/10/29 07:14:13;;;;;;;2.40;1.87;;;;;;;0.13;76.85;100674.09;4954672;29;20129;-65
2023/10/29 07:16:44;;;;;;;3.73;2.20;;;;;;;-0.01;76.83;100641.75;4954477;29;20042;-65
2023/10/29 07:19:16;;;;;;;4.83;2.80;;;;;;;0.22;77.05;100679.56;4954694;29;20472;-64
2023/10/29 07:21:42;;;;;;;3.17;2.17;;;;;;;0.32;76.82;100692.09;4956411;29;20812;-65
2023/10/29 07:24:08;;;;;;;6.33;4.23;;;;;;;0.34;78.09;100695.44;4955741;29;20290;-66
2023/10/29 07:26:37;;;;;;;5.17;2.50;;;;;;;0.41;76.09;100700.19;4959544;29;20047;-64
2023/10/29 07:29:03;;;;;;;4.28;3.13;;;;;;;0.36;77.22;100683.09;4955621;29;20271;-65
2023/10/29 07:31:33;;;;;;;4.97;3.07;;;;;;;0.37;77.16;100683.00;4938675;29;20055;-64
2023/10/29 07:33:58;;;;;;;3.80;2.10;;;;;;;0.42;75.85;100690.53;4937996;29;20057;-65
2023/10/29 07:36:26;;;;;;;9.85;2.55;;;;;;;0.52;75.40;100704.72;4956127;29;20285;-65
2023/10/29 07:38:52;;;;;;;5.73;2.43;;;;;;;0.54;74.83;100708.91;4956645;29;20039;-63
2023/10/29 07:41:21;;;;;;;3.10;2.00;;;;;;;0.38;74.72;100681.22;4956836;29;20465;-64
2023/10/29 07:43:47;;;;;;;3.63;2.50;;;;;;;0.55;74.48;100710.59;4955372;29;20042;-64
2023/10/29 07:46:13;;;;;;;4.17;2.30;;;;;;;0.50;73.54;100696.13;4958302;29;20311;-64
2023/10/29 07:48:39;;;;;;;5.83;2.10;;;;;;;-0.15;73.58;100583.38;4954851;29;20279;-64
2023/10/29 07:51:05;;;;;;;7.47;2.70;;;;;;;0.22;72.21;100650.75;4954478;29;20771;-63
2023/10/29 07:53:31;;;;;;;10.60;3.57;;;;;;;0.54;72.45;100714.16;4955899;29;20267;-65
2023/10/29 07:56:13;;;;;;;3.27;2.70;;;;;;;0.54;71.99;100713.31;4958388;29;20550;-65
2023/10/29 07:58:40;;;;;;;4.30;2.93;;;;;;;0.34;73.42;100690.22;4956515;29;20557;-65
2023/10/29 08:01:13;;;;;;;7.23;3.20;;;;;;;0.46;72.58;100699.88;4955831;29;20282;-64
2023/10/29 08:03:40;;;;;;;7.27;3.70;;;;;;;0.53;72.59;100706.41;4958061;29;20279;-66
2023/10/29 08:06:05;;;;;;;7.47;3.93;;;;;;;0.38;72.43;100670.72;4937757;29;20267;-64
2023/10/29 08:08:31;;;;;;;10.10;3.17;;;;;;;0.53;72.02;100701.16;4954497;29;20270;-64
2023/10/29 08:10:57;;;;;;;6.10;2.80;;;;;;;0.62;71.22;100721.53;4937319;29;20058;-63
2023/10/29 08:13:22;;;;;;;4.83;3.00;;;;;;;0.70;71.89;100736.75;4953726;29;20486;-63
2023/10/29 08:15:48;;;;;;;12.03;3.20;;;;;;;0.62;70.77;100716.31;4936636;29;20035;-64
2023/10/29 08:18:14;;;;;;;9.70;3.87;;;;;;;0.73;70.91;100733.94;4937041;29;20130;-65
2023/10/29 08:20:40;;;;;;;3.60;2.70;;;;;;;0.15;69.76;100644.25;4953626;28;20511;-63
2023/10/29 08:23:06;;;;;;;8.43;2.70;;;;;;;0.57;69.36;100718.34;4938122;29;20860;-65
2023/10/29 08:25:35;;;;;;;8.87;3.47;;;;;;;0.53;70.30;100711.63;4955586;29;20266;-64
2023/10/29 08:28:01;;;;;;;13.85;4.28;;;;;;;0.67;70.13;100735.19;4954245;29;20031;-66
2023/10/29 08:30:28;;;;;;;6.80;3.27;;;;;;;0.74;68.65;100746.94;4962749;28;20123;-64
2023/10/29 08:32:54;;;;;;;17.07;4.73;;;;;;;0.78;69.54;100743.19;4956144;29;20095;-66
2023/10/29 08:35:20;;;;;;;6.53;3.33;;;;;;;0.74;68.95;100736.47;4953622;29;20266;-64
2023/10/29 08:37:46;;;;;;;9.13;2.80;;;;;;;0.60;68.82;100723.44;4953665;29;20046;-65
2023/10/29 08:40:12;;;;;;;5.40;3.27;;;;;;;0.69;68.35;100737.69;4954925;29;20039;-63
2023/10/29 08:42:38;;;;;;;5.17;2.63;;;;;;;0.66;68.19;100733.50;4954515;29;20328;-66
2023/10/29 08:45:15;;;;;;;5.00;3.00;;;;;;;0.76;68.18;100749.47;4953354;29;20275;-67
2023/10/29 08:47:41;;;;;;;5.70;2.90;;;;;;;0.77;68.40;100759.84;4936597;29;20097;-65
2023/10/29 08:50:08;;;;;;;4.57;3.20;;;;;;;0.77;68.18;100751.97;4953382;29;20361;-65
2023/10/29 08:52:34;;;;;;;5.97;3.50;;;;;;;0.90;68.28;100763.38;4953281;29;20035;-65
2023/10/29 08:54:59;;;;;;;4.33;2.63;;;;;;;1.01;67.75;100773.13;4936269;29;20278;-64
2023/10/29 08:57:25;;;;;;;10.53;4.27;;;;;;;1.04;67.88;100775.56;4937310;29;20062;-66
2023/10/29 08:59:50;;;;;;;4.80;2.73;;;;;;;0.86;67.58;100730.41;4935869;29;20229;-66
2023/10/29 09:02:16;;;;;;;8.93;3.33;;;;;;;1.18;67.21;100782.53;4938477;29;20121;-64
2023/10/29 09:04:42;;;;;;;7.50;3.33;;;;;;;1.17;65.81;100770.34;4956380;29;20098;-64
2023/10/29 09:07:07;;;;;;;4.87;3.50;;;;;;;1.08;66.75;100770.94;4957069;29;20043;-65
2023/10/29 09:09:35;;;;;;;2.97;2.67;;;;;;;1.00;66.79;100760.97;4936650;29;20483;-67
2023/10/29 09:12:01;;;;;;;4.47;3.10;;;;;;;1.10;67.59;100779.53;4939016;29;20411;-65
2023/10/29 09:14:26;;;;;;;4.07;3.63;;;;;;;1.04;65.29;100791.28;4956758;29;20285;-64
2023/10/29 09:16:52;;;;;;;7.07;3.43;;;;;;;1.08;65.81;100800.63;4955765;29;20028;-63
2023/10/29 09:19:18;;;;;;;5.83;2.60;;;;;;;1.10;66.54;100796.13;4955280;29;20131;-67
2023/10/29 09:21:47;;;;;;;6.97;3.23;;;;;;;1.08;64.96;100792.75;4937821;29;20561;-65
2023/10/29 09:24:13;;;;;;;5.23;2.83;;;;;;;1.14;65.19;100805.47;4954972;29;20130;-64
2023/10/29 09:26:40;;;;;;;3.60;2.70;;;;;;;1.04;64.01;100790.44;4938314;29;20321;-64
2023/10/29 09:29:08;;;;;;;3.78;2.55;;;;;;;0.82;64.03;100776.13;4952626;29;20071;-66
2023/10/29 09:31:52;;;;;;;3.50;2.90;;;;;;;0.65;62.66;100731.81;4940624;29;20094;-64
2023/10/29 09:34:18;;;;;;;3.77;2.60;;;;;;;0.93;63.16;100773.66;4939324;29;20762;-64
2023/10/29 09:36:44;;;;;;;3.50;2.87;;;;;;;0.93;63.56;100773.66;4957502;29;20278;-65
2023/10/29 09:39:43;;;;;;;5.17;2.27;;;;;;;1.00;63.57;100795.06;4939889;29;20039;-68
2023/10/29 09:42:17;;;;;;;2.83;2.37;;;;;;;1.05;62.78;100807.88;4957927;29;20042;-64
2023/10/29 09:44:54;;;;;;;4.37;3.03;;;;;;;1.08;63.70;100808.50;4956867;29;20634;-65
2023/10/29 09:47:22;;;;;;;;;;;;;;;1.20;64.42;100806.88;4957237;29;20311;-67
2023/10/29 09:49:50;;;;;;;5.60;2.33;;;;;;;1.30;64.71;100810.56;4924249;29;19918;-65
2023/10/29 09:52:16;;;;;;;5.40;3.63;;;;;;;1.26;64.78;100803.84;4956379;29;20329;-64
2023/10/29 09:54:42;;;;;;;5.47;2.80;;;;;;;1.28;63.87;100804.56;4955427;29;20478;-63
2023/10/29 09:57:08;;;;;;;3.40;2.40;;;;;;;1.32;63.27;100820.94;4956301;29;20035;-65
2023/10/29 09:59:37;;;;;;;6.43;2.77;;;;;;;1.29;65.20;100819.38;4955692;29;20639;-64
2023/10/29 10:02:03;;;;;;;7.83;2.87;;;;;;;1.37;66.04;100827.56;4956009;29;20039;-65
2023/10/29 10:04:29;;;;;;;5.67;3.13;;;;;;;1.34;63.41;100822.53;4940509;29;20326;-63
2023/10/29 10:06:58;;;;;;;6.57;3.47;;;;;;;1.46;63.40;100829.59;4925278;29;20039;-65
2023/10/29 10:09:24;;;;;;;4.47;2.67;;;;;;;1.54;63.44;100845.66;4956176;29;20035;-63
2023/10/29 10:12:03;;;;;;;3.73;2.80;;;;;;;1.53;63.13;100836.09;4957458;29;20263;-65
2023/10/29 10:14:28;;;;;;;;;;;;;;;1.66;64.23;100848.41;4961618;29;20762;-64
2023/10/29 10:17:10;;;;;;;7.47;2.97;;;;;;;1.58;63.03;100832.31;4956495;29;19925;-67
2023/10/29 10:19:37;;;;;;;3.30;2.40;;;;;;;1.63;60.99;100836.31;4955483;29;20524;-63
2023/10/29 10:22:06;;;;;;;3.73;2.63;;;;;;;1.60;60.60;100836.53;4955811;29;20287;-63
2023/10/29 10:24:39;;;;;;;6.75;2.92;;;;;;;1.42;60.06;100828.09;4956186;29;20314;-65
2023/10/29 10:27:06;;;;;;;3.40;2.47;;;;;;;1.22;61.03;100816.31;4956100;29;20035;-65
2023/10/29 10:29:32;;;;;;;4.70;2.83;;;;;;;1.41;61.67;100844.78;4942567;29;20346;-65
2023/10/29 10:32:03;;;;;;;3.17;1.60;;;;;;;1.43;60.23;100834.19;4940485;29;20291;-63
2023/10/29 10:34:30;;;;;;;13.80;5.70;;;;;;;1.54;60.43;100848.28;4941458;29;20282;-64
2023/10/29 10:37:00;;;;;;;11.23;7.50;;;;;;;1.49;60.61;100837.25;4959413;29;20275;-65
2023/10/29 10:39:31;;;;;;;25.00;8.27;;;;;;;1.52;60.78;100837.06;4960156;29;20305;-63
2023/10/29 10:41:58;;;;;;;12.33;6.87;;;;;;;1.63;60.04;100840.72;4962209;29;20282;-66
2023/10/29 10:44:26;;;;;;;16.90;6.87;;;;;;;1.62;59.91;100828.53;4962179;28;20675;-65
2023/10/29 10:46:54;;;;;;;7.77;4.60;;;;;;;1.68;58.63;100839.47;4962352;29;20275;-64
2023/10/29 10:49:23;;;;;;;2.00;1.60;;;;;;;1.62;58.36;100844.28;4960241;29;20271;-66
2023/10/29 10:51:58;;;;;;;5.23;2.50;;;;;;;1.54;58.87;100839.56;4958497;29;20275;-66
2023/10/29 10:54:25;;;;;;;7.03;2.73;;;;;;;1.61;59.72;100853.97;4958564;29;20278;-64
2023/10/29 10:56:54;;;;;;;5.67;3.53;;;;;;;1.58;60.11;100848.06;4959272;29;20332;-64
2023/10/29 10:59:20;;;;;;;6.60;2.83;;;;;;;1.61;58.40;100853.13;4958434;29;20382;-65
2023/10/29 11:01:48;;;;;;;4.83;2.40;;;;;;;1.55;58.14;100851.75;4959424;29;20097;-65
2023/10/29 11:04:14;;;;;;;2.63;2.07;;;;;;;1.66;58.84;100864.16;4948141;29;20271;-64
2023/10/29 11:06:41;;;;;;;3.97;2.23;;;;;;;1.31;58.74;100803.53;4939627;29;20303;-64
2023/10/29 11:09:13;;;;;;;4.43;2.93;;;;;;;1.63;58.83;100857.31;4952925;29;20247;-64
2023/10/29 11:11:51;;;;;;;3.93;2.23;;;;;;;1.52;60.31;100844.09;4971688;29;20733;-64
2023/10/29 11:14:18;;;;;;;3.55;3.05;;;;;;;1.31;59.61;100822.72;4969905;29;20398;-66
2023/10/29 11:16:55;;;;;;;5.70;2.97;;;;;;;1.05;60.78;100792.97;4969976;29;20071;-64
2023/10/29 11:19:37;;;;;;;3.57;2.77;;;;;;;1.41;62.16;100850.03;4952576;29;20286;-63
2023/10/29 11:22:22;;;;;;;6.57;2.80;;;;;;;1.42;61.84;100846.47;4946809;29;20282;-65
2023/10/29 11:25:11;;;;;;;5.53;3.03;;;;;;;1.46;61.96;100861.09;4966595;29;20282;-65